Time;durP1;ratioP1;P1;durP2;ratioP2;P2;SDS_P1;SDS_P2;PMS_P1;PMS_P2;Temp;Humidity;BMP_temperature;BMP_pressure;BME280_temperature;BME280_humidity;BME280_pressure;Samples;Min_cycle;Max_cycle;Signal;HPM_P1;HPM_P2
2021/09/07 00:01:58;;;;;;;17.10;11.17;;;;;;;13.70;100.00;101473.84;5045402;28;20234;-72
2021/09/07 00:04:29;;;;;;;15.83;11.20;;;;;;;13.71;100.00;101477.34;5045462;28;20203;-72
2021/09/07 00:06:55;;;;;;;17.13;11.20;;;;;;;13.70;100.00;101473.84;5038861;28;20229;-72
2021/09/07 00:09:21;;;;;;;15.10;10.73;;;;;;;13.70;100.00;101473.84;5040766;28;20577;-72
2021/09/07 00:11:48;;;;;;;16.40;11.23;;;;;;;13.71;100.00;101472.09;5044732;28;20587;-72
2021/09/07 00:14:16;;;;;;;16.93;11.70;;;;;;;13.71;100.00;101479.94;5041703;28;20203;-72
2021/09/07 00:16:42;;;;;;;16.70;12.03;;;;;;;13.71;100.00;101479.94;5042404;28;20242;-72
2021/09/07 00:19:09;;;;;;;16.57;10.87;;;;;;;13.70;100.00;101479.09;5044265;28;20233;-72
2021/09/07 00:21:36;;;;;;;15.70;10.87;;;;;;;13.70;100.00;101470.34;5047226;28;20208;-72
2021/09/07 00:24:02;;;;;;;14.53;10.53;;;;;;;13.68;100.00;101475.63;5038534;28;20219;-72
2021/09/07 00:26:28;;;;;;;18.07;11.47;;;;;;;13.69;100.00;101473.91;5047934;28;20227;-72
2021/09/07 00:28:55;;;;;;;15.47;10.83;;;;;;;13.69;100.00;101460.78;5031575;28;20244;-72
2021/09/07 00:31:23;;;;;;;17.20;10.80;;;;;;;13.71;100.00;101459.84;5032993;28;20204;-72
2021/09/07 00:33:49;;;;;;;18.80;11.63;;;;;;;13.72;100.00;101460.69;5044102;28;20203;-72
2021/09/07 00:36:16;;;;;;;16.50;11.00;;;;;;;13.71;100.00;101472.09;5043241;28;20227;-72
2021/09/07 00:38:43;;;;;;;13.97;10.37;;;;;;;13.70;100.00;101473.84;5047662;28;20207;-72
2021/09/07 00:41:11;;;;;;;16.17;10.90;;;;;;;13.67;100.00;101466.06;5044959;28;20207;-72
2021/09/07 00:43:40;;;;;;;14.63;10.30;;;;;;;13.68;100.00;101465.16;5024516;28;20599;-72
2021/09/07 00:46:06;;;;;;;15.00;10.73;;;;;;;13.71;100.00;101454.59;5036367;28;20228;-72
2021/09/07 00:48:34;;;;;;;18.63;11.43;;;;;;;13.70;100.00;101458.13;5043512;28;20690;-72
2021/09/07 00:51:00;;;;;;;16.30;11.20;;;;;;;13.66;100.00;101463.47;5046389;28;20571;-72
2021/09/07 00:53:27;;;;;;;16.23;10.53;;;;;;;13.66;100.00;101466.09;5041955;28;20204;-72
2021/09/07 00:55:57;;;;;;;15.17;10.50;;;;;;;13.66;100.00;101466.09;5047038;28;20682;-72
2021/09/07 00:58:27;;;;;;;14.63;10.27;;;;;;;13.66;100.00;101472.19;5047586;28;20203;-72
2021/09/07 01:00:54;;;;;;;14.30;10.23;;;;;;;13.66;100.00;101466.97;5037259;28;20196;-72
2021/09/07 01:03:20;;;;;;;13.67;9.93;;;;;;;13.63;100.00;101462.66;5044632;28;20302;-72
2021/09/07 01:05:48;;;;;;;15.60;10.93;;;;;;;13.63;100.00;101454.81;5030241;28;20591;-72
2021/09/07 01:08:15;;;;;;;16.93;10.70;;;;;;;13.62;100.00;101454.84;5040735;28;20195;-72
2021/09/07 01:10:43;;;;;;;14.07;9.77;;;;;;;13.58;100.00;101450.59;5044172;28;20203;-72
2021/09/07 01:13:10;;;;;;;15.57;10.83;;;;;;;13.60;100.00;101449.63;5043256;28;20210;-72
2021/09/07 01:15:36;;;;;;;15.57;10.53;;;;;;;13.58;100.00;101453.22;5049415;28;20199;-72
2021/09/07 01:18:02;;;;;;;16.33;10.93;;;;;;;13.59;100.00;101452.28;5047914;28;20229;-72
2021/09/07 01:20:29;;;;;;;18.23;10.90;;;;;;;13.57;100.00;101454.94;5048162;28;20238;-72
2021/09/07 01:22:57;;;;;;;14.17;10.63;;;;;;;13.58;100.00;101454.06;5048515;28;20196;-71
2021/09/07 01:25:25;;;;;;;18.03;11.10;;;;;;;13.56;100.00;101447.13;5035890;28;20290;-72
2021/09/07 01:27:51;;;;;;;15.27;10.97;;;;;;;13.58;100.00;101442.72;5055518;28;20218;-72
2021/09/07 01:30:19;;;;;;;16.97;10.67;;;;;;;13.59;100.00;101439.19;5050346;28;20213;-72
2021/09/07 01:32:46;;;;;;;17.07;11.27;;;;;;;13.55;100.00;101441.03;5046748;28;20600;-72
2021/09/07 01:35:12;;;;;;;14.03;10.27;;;;;;;13.54;100.00;101431.44;5049387;28;20211;-72
2021/09/07 01:37:40;;;;;;;16.60;10.17;;;;;;;13.58;100.00;101437.50;5047968;28;20636;-72
2021/09/07 01:40:08;;;;;;;16.07;11.20;;;;;;;13.58;100.00;101432.25;5050234;28;20296;-72
2021/09/07 01:42:35;;;;;;;17.27;11.70;;;;;;;13.57;100.00;101439.22;5035076;28;20196;-72
2021/09/07 01:45:02;;;;;;;16.77;10.43;;;;;;;13.57;100.00;101434.00;5045386;28;20744;-72
2021/09/07 01:47:28;;;;;;;15.93;10.57;;;;;;;13.57;100.00;101436.59;5046078;28;20230;-71
2021/09/07 01:49:55;;;;;;;16.93;11.20;;;;;;;13.55;100.00;101429.69;5049710;28;20707;-72
2021/09/07 01:52:21;;;;;;;14.77;11.03;;;;;;;13.54;100.00;101430.59;5046208;28;20207;-72
2021/09/07 01:54:50;;;;;;;15.23;10.33;;;;;;;13.54;100.00;101438.44;5047227;28;20195;-72
2021/09/07 01:57:18;;;;;;;19.13;11.73;;;;;;;13.52;100.00;101442.88;5045867;28;20313;-72
2021/09/07 01:59:46;;;;;;;16.17;11.37;;;;;;;13.51;100.00;101444.63;5044540;28;20206;-72
2021/09/07 02:02:13;;;;;;;14.60;11.00;;;;;;;13.53;100.00;101447.22;5043414;28;20212;-73
2021/09/07 02:04:40;;;;;;;15.97;11.20;;;;;;;13.54;100.00;101452.41;5049116;28;20289;-72
2021/09/07 02:07:07;;;;;;;15.70;11.03;;;;;;;13.57;100.00;101459.34;5045843;28;20232;-72
2021/09/07 02:09:33;;;;;;;15.03;10.83;;;;;;;13.55;100.00;101455.91;5048579;28;20226;-72
2021/09/07 02:12:00;;;;;;;18.17;12.33;;;;;;;13.55;100.00;101453.28;5048907;28;20211;-72
2021/09/07 02:14:27;;;;;;;17.87;11.90;;;;;;;13.56;100.00;101460.22;5051431;28;20195;-72
2021/09/07 02:16:54;;;;;;;18.03;10.90;;;;;;;13.57;100.00;101456.72;5047594;28;20230;-72
2021/09/07 02:19:21;;;;;;;16.93;11.53;;;;;;;13.56;100.00;101457.59;5039244;28;20729;-72
2021/09/07 02:21:49;;;;;;;16.27;11.13;;;;;;;13.57;100.00;101454.09;5045303;28;20286;-72
2021/09/07 02:24:18;;;;;;;16.20;10.93;;;;;;;13.57;100.00;101462.81;5044436;28;20293;-72
2021/09/07 02:26:45;;;;;;;16.37;11.30;;;;;;;13.54;100.00;101455.00;5045009;28;20211;-72
2021/09/07 02:29:12;;;;;;;14.90;10.87;;;;;;;13.55;100.00;101461.13;5041083;28;20202;-72
2021/09/07 02:31:40;;;;;;;16.17;12.03;;;;;;;13.53;100.00;101447.22;5045097;28;20203;-72
2021/09/07 02:34:10;;;;;;;14.27;10.40;;;;;;;13.54;100.00;101454.16;5047087;28;20207;-71
2021/09/07 02:36:37;;;;;;;16.40;11.70;;;;;;;13.57;100.00;101456.72;5049247;28;20223;-72
2021/09/07 02:39:05;;;;;;;18.20;11.70;;;;;;;13.55;100.00;101448.88;5040825;28;20207;-72
2021/09/07 02:41:32;;;;;;;16.73;11.00;;;;;;;13.54;100.00;101457.63;5046306;28;20202;-72
2021/09/07 02:44:00;;;;;;;18.57;12.13;;;;;;;13.52;100.00;101459.44;5042783;28;20211;-72
2021/09/07 02:46:26;;;;;;;16.23;10.27;;;;;;;13.52;100.00;101456.81;5044201;28;20239;-72
2021/09/07 02:48:53;;;;;;;15.63;11.03;;;;;;;13.53;100.00;101461.19;5046283;28;20701;-72
2021/09/07 02:51:21;;;;;;;16.97;11.13;;;;;;;13.53;100.00;101455.94;5048919;28;20230;-72
2021/09/07 02:53:47;;;;;;;17.13;11.43;;;;;;;13.53;100.00;101455.09;5049161;28;20602;-72
2021/09/07 02:56:15;;;;;;;18.73;11.53;;;;;;;13.53;100.00;101453.31;5050767;28;20309;-72
2021/09/07 02:58:42;;;;;;;16.80;11.60;;;;;;;13.52;100.00;101454.19;5048428;28;20225;-72
2021/09/07 03:01:08;;;;;;;16.27;10.83;;;;;;;13.51;100.00;101447.25;5047840;28;20210;-72
2021/09/07 03:03:36;;;;;;;19.60;11.87;;;;;;;13.49;100.00;101450.78;5036470;28;20579;-72
2021/09/07 03:06:03;;;;;;;18.93;11.93;;;;;;;13.47;100.00;101450.84;5049400;28;20252;-72
2021/09/07 03:08:32;;;;;;;19.03;11.23;;;;;;;13.48;100.00;101451.72;5048592;28;20223;-72
2021/09/07 03:10:59;;;;;;;15.97;11.50;;;;;;;13.48;100.00;101456.97;5047807;28;20248;-72
2021/09/07 03:13:26;;;;;;;16.83;12.17;;;;;;;13.48;100.00;101447.31;5042559;28;20229;-72
2021/09/07 03:15:53;;;;;;;17.53;12.03;;;;;;;13.49;100.00;101445.56;5046051;28;20252;-72
2021/09/07 03:18:20;;;;;;;14.20;10.57;;;;;;;13.47;100.00;101435.13;5047040;28;20207;-72
2021/09/07 03:20:46;;;;;;;18.13;12.37;;;;;;;13.49;100.00;101442.94;5042639;28;20217;-71
2021/09/07 03:23:14;;;;;;;18.80;12.40;;;;;;;13.49;100.00;101443.81;5048076;28;20215;-72
2021/09/07 03:25:43;;;;;;;20.77;12.73;;;;;;;13.46;100.00;101443.88;5050179;28;20218;-72
2021/09/07 03:28:11;;;;;;;21.40;13.20;;;;;;;13.43;100.00;101434.34;5046067;28;20211;-72
2021/09/07 03:30:39;;;;;;;19.97;12.67;;;;;;;13.48;100.00;101438.63;5042501;28;20207;-72
2021/09/07 03:33:05;;;;;;;16.77;11.73;;;;;;;13.47;100.00;101436.88;5047151;28;20206;-72
2021/09/07 03:35:32;;;;;;;17.80;11.97;;;;;;;13.44;100.00;101436.06;5047786;28;20290;-72
2021/09/07 03:38:00;;;;;;;18.97;12.00;;;;;;;13.43;100.00;101442.19;5040063;28;20306;-72
2021/09/07 03:40:28;;;;;;;17.80;12.60;;;;;;;13.43;100.00;101439.56;5042708;28;20707;-72
2021/09/07 03:42:57;;;;;;;19.23;12.10;;;;;;;13.44;100.00;101443.94;5044925;28;20207;-72
2021/09/07 03:45:24;;;;;;;17.27;10.77;;;;;;;13.45;100.00;101442.16;5035622;28;20201;-71
2021/09/07 03:47:51;;;;;;;16.27;11.07;;;;;;;13.45;100.00;101442.16;5045413;28;20810;-72
2021/09/07 03:50:18;;;;;;;18.40;11.97;;;;;;;13.43;100.00;101439.56;5043718;28;20591;-72
2021/09/07 03:52:45;;;;;;;18.27;12.57;;;;;;;13.45;100.00;101452.63;5038826;28;20212;-72
2021/09/07 03:55:12;;;;;;;19.37;12.87;;;;;;;13.43;100.00;101447.44;5046554;28;20235;-72
2021/09/07 03:57:39;;;;;;;18.20;13.30;;;;;;;13.43;100.00;101455.28;5046883;28;20781;-72
2021/09/07 04:00:09;;;;;;;16.33;11.87;;;;;;;13.43;100.00;101460.53;5046682;28;20659;-72
2021/09/07 04:02:42;;;;;;;17.20;12.00;;;;;;;13.42;100.00;101465.81;5042814;28;20194;-72
2021/09/07 04:05:10;;;;;;;16.97;11.33;;;;;;;13.43;100.00;101463.16;5044651;28;20203;-72
2021/09/07 04:07:38;;;;;;;17.83;12.00;;;;;;;13.44;100.00;101451.78;5046176;28;20223;-72
2021/09/07 04:10:07;;;;;;;16.37;11.40;;;;;;;13.45;100.00;101457.88;5045176;28;20930;-72
2021/09/07 04:12:33;;;;;;;19.03;12.23;;;;;;;13.46;100.00;101448.28;5046352;28;20207;-72
2021/09/07 04:15:01;;;;;;;18.70;12.40;;;;;;;13.45;100.00;101455.25;5042472;28;20230;-72
2021/09/07 04:17:29;;;;;;;16.80;11.80;;;;;;;13.44;100.00;101451.78;5043216;28;20328;-72
2021/09/07 04:19:55;;;;;;;18.60;12.23;;;;;;;13.45;100.00;101447.41;5045891;28;20206;-72
2021/09/07 04:22:22;;;;;;;17.13;11.80;;;;;;;13.44;100.00;101457.03;5041701;28;20394;-72
2021/09/07 04:24:48;;;;;;;16.93;11.63;;;;;;;13.44;100.00;101456.16;5045122;28;20226;-72
2021/09/07 04:27:15;;;;;;;20.53;12.53;;;;;;;13.44;100.00;101453.56;5045267;28;20233;-72
2021/09/07 04:29:41;;;;;;;18.63;12.63;;;;;;;13.43;100.00;101460.53;5048018;28;20207;-72
2021/09/07 04:32:07;;;;;;;15.83;10.90;;;;;;;13.44;100.00;101461.41;5039494;28;20200;-72
2021/09/07 04:34:35;;;;;;;17.70;12.30;;;;;;;13.44;100.00;101457.03;5044777;28;20305;-72
2021/09/07 04:37:02;;;;;;;21.03;13.07;;;;;;;13.46;100.00;101464.00;5027082;28;20207;-72
2021/09/07 04:39:28;;;;;;;18.60;12.67;;;;;;;13.44;100.00;101462.25;5041843;28;20207;-73
2021/09/07 04:41:54;;;;;;;16.50;12.27;;;;;;;13.46;100.00;101461.38;5043575;28;20195;-72
2021/09/07 04:44:23;;;;;;;19.07;12.77;;;;;;;13.46;100.00;101467.47;5046731;28;20195;-72
2021/09/07 04:46:51;;;;;;;19.93;12.70;;;;;;;13.49;100.00;101466.50;5046386;28;20310;-72
2021/09/07 04:49:18;;;;;;;18.20;12.90;;;;;;;13.48;100.00;101465.66;5050440;28;20210;-72
2021/09/07 04:51:46;;;;;;;20.97;13.80;;;;;;;13.48;100.00;101470.91;5051128;28;20267;-72
2021/09/07 04:54:13;;;;;;;20.10;13.10;;;;;;;13.51;100.00;101467.34;5044611;28;20198;-72
2021/09/07 04:56:39;;;;;;;18.07;11.93;;;;;;;13.51;100.00;101472.56;5050200;28;20223;-72
2021/09/07 04:59:05;;;;;;;17.00;11.90;;;;;;;13.53;100.00;101478.66;5050459;28;20203;-72
2021/09/07 05:01:32;;;;;;;19.37;12.57;;;;;;;13.53;100.00;101476.91;5050146;28;20221;-72
2021/09/07 05:03:58;;;;;;;20.57;12.93;;;;;;;13.55;100.00;101476.84;5049028;28;20195;-72
2021/09/07 05:06:24;;;;;;;18.83;13.37;;;;;;;13.57;100.00;101486.38;5047516;28;20222;-72
2021/09/07 05:08:52;;;;;;;18.83;11.93;;;;;;;13.56;100.00;101479.44;5049371;28;20211;-72
2021/09/07 05:11:19;;;;;;;19.10;12.87;;;;;;;13.57;100.00;101480.28;5049380;28;20191;-72
2021/09/07 05:13:45;;;;;;;20.80;13.37;;;;;;;13.62;100.00;101487.13;5049694;28;20299;-72
2021/09/07 05:16:28;;;;;;;18.77;13.80;;;;;;;13.61;100.00;101495.91;5041667;28;20219;-72
2021/09/07 05:19:10;;;;;;;21.67;13.60;;;;;;;13.64;100.00;101502.81;5046153;28;20211;-72
2021/09/07 05:21:52;;;;;;;19.27;12.90;;;;;;;13.67;100.00;101500.13;5049422;28;20214;-72
2021/09/07 05:24:29;;;;;;;21.63;13.87;;;;;;;13.67;100.00;101505.38;5050044;28;20532;-72
2021/09/07 05:29:58;;;;;;;20.17;12.77;;;;;;;13.70;100.00;101505.31;5042392;28;20203;-72
2021/09/07 05:32:38;;;;;;;18.63;13.03;;;;;;;13.71;100.00;101512.25;5047129;28;20214;-72
2021/09/07 05:35:53;;;;;;;19.20;12.87;;;;;;;13.75;100.00;101515.66;5044594;28;20191;-72
2021/09/07 05:38:37;;;;;;;18.30;12.57;;;;;;;13.78;100.00;101512.97;5033254;28;20191;-72
2021/09/07 05:41:13;;;;;;;20.23;12.37;;;;;;;13.81;100.00;101507.66;5042132;28;20771;-72
2021/09/07 05:44:04;;;;;;;20.80;13.00;;;;;;;13.83;100.00;101506.69;5045506;28;20183;-72
2021/09/07 05:46:42;;;;;;;19.83;13.43;;;;;;;13.88;100.00;101518.81;5031527;28;20762;-72
2021/09/07 05:49:19;;;;;;;20.77;12.23;;;;;;;13.91;100.00;101508.25;5049704;28;20219;-72
2021/09/07 05:52:22;;;;;;;20.93;13.03;;;;;;;13.94;100.00;101516.06;5047979;28;20195;-72
2021/09/07 05:54:56;;;;;;;20.37;13.90;;;;;;;13.97;100.00;101515.97;5046226;28;20195;-72
2021/09/07 05:57:34;;;;;;;18.73;12.40;;;;;;;13.98;100.00;101521.19;5040378;28;20217;-72
2021/09/07 06:00:15;;;;;;;17.90;12.50;;;;;;;14.00;100.00;101521.13;5029777;28;20222;-72
2021/09/07 06:03:12;;;;;;;19.23;12.03;;;;;;;14.02;100.00;101528.06;5044982;28;20230;-72
2021/09/07 06:05:57;;;;;;;20.67;12.77;;;;;;;14.09;100.00;101522.63;5048679;28;20203;-72
2021/09/07 06:08:47;;;;;;;;;;;;;;;;;;;;;
2021/09/07 06:11:20;;;;;;;21.63;12.97;;;;;;;14.17;100.00;101531.16;5047993;28;20249;-72
2021/09/07 06:14:19;;;;;;;18.40;12.97;;;;;;;14.20;100.00;101537.19;5043922;28;20188;-72
2021/09/07 06:16:57;;;;;;;18.30;12.37;;;;;;;14.29;100.00;101546.56;5045035;28;20227;-72
2021/09/07 06:19:25;;;;;;;17.23;11.93;;;;;;;14.34;100.00;101541.22;5046264;28;20207;-72
2021/09/07 06:22:10;;;;;;;18.93;12.57;;;;;;;14.36;100.00;101556.00;5044238;28;20205;-72
2021/09/07 06:24:49;;;;;;;18.13;12.53;;;;;;;14.38;100.00;101551.56;5044021;28;20239;-72
2021/09/07 06:27:26;;;;;;;16.60;12.00;;;;;;;14.44;100.00;101557.56;5048636;28;20219;-73
2021/09/07 06:30:25;;;;;;;18.77;11.87;;;;;;;14.48;100.00;101560.06;5045763;28;20212;-72
2021/09/07 06:33:28;;;;;;;18.47;11.50;;;;;;;14.54;100.00;101562.50;5048657;28;20209;-73
2021/09/07 06:36:07;;;;;;;16.70;12.47;;;;;;;14.58;100.00;101553.69;5048215;28;20197;-72
2021/09/07 06:38:39;;;;;;;17.23;11.73;;;;;;;14.64;100.00;101557.06;5049950;28;20226;-72
2021/09/07 06:41:11;;;;;;;16.87;11.30;;;;;;;14.69;100.00;101558.63;5050154;28;20191;-72
2021/09/07 06:43:59;;;;;;;17.83;11.47;;;;;;;14.73;100.00;101564.66;5047562;28;20197;-72
2021/09/07 06:46:33;;;;;;;16.40;11.13;;;;;;;14.81;100.00;101560.06;5047242;28;20220;-72
2021/09/07 06:49:15;;;;;;;16.60;11.33;;;;;;;14.86;100.00;101560.78;5045321;28;20273;-72
2021/09/07 06:51:47;;;;;;;15.40;10.57;;;;;;;14.94;100.00;101558.78;5047902;28;20213;-73
2021/09/07 06:54:27;;;;;;;16.20;10.70;;;;;;;15.03;100.00;101560.25;5047884;28;20208;-73
2021/09/07 06:56:56;;;;;;;17.00;11.43;;;;;;;15.12;100.00;101567.00;5042998;28;20234;-73
2021/09/07 06:59:35;;;;;;;16.83;11.43;;;;;;;15.20;100.00;101569.44;5047269;28;20990;-72
2021/09/07 07:02:15;;;;;;;18.07;11.57;;;;;;;15.31;100.00;101567.31;5045171;28;20357;-72
2021/09/07 07:04:55;;;;;;;19.30;11.50;;;;;;;15.46;100.00;101573.84;5044620;28;20213;-73
2021/09/07 07:07:25;;;;;;;16.27;10.77;;;;;;;15.59;100.00;101569.09;5042755;28;20307;-72
2021/09/07 07:10:11;;;;;;;17.20;11.40;;;;;;;15.68;100.00;101564.38;5046226;28;20202;-72
2021/09/07 07:12:45;;;;;;;16.70;10.60;;;;;;;15.81;100.00;101571.88;5038431;28;20270;-72
2021/09/07 07:15:19;;;;;;;15.50;10.33;;;;;;;15.94;100.00;101572.38;5044931;28;20278;-72
2021/09/07 07:18:04;;;;;;;16.13;10.60;;;;;;;16.04;100.00;101574.63;5046295;28;20453;-73
2021/09/07 07:21:01;;;;;;;16.80;10.77;;;;;;;16.19;100.00;101578.50;5043206;28;20199;-73
2021/09/07 07:24:08;;;;;;;17.80;9.83;;;;;;;16.40;99.00;101574.25;5044910;28;20195;-73
2021/09/07 07:26:55;;;;;;;18.23;10.73;;;;;;;16.68;99.26;101569.78;5047420;28;20215;-73
2021/09/07 07:29:28;;;;;;;14.83;9.30;;;;;;;16.86;96.74;101578.78;5045327;28;20211;-72
2021/09/07 07:32:10;;;;;;;14.57;9.30;;;;;;;16.97;92.02;101574.84;5044552;28;20207;-73
2021/09/07 07:34:58;;;;;;;15.13;9.23;;;;;;;17.16;92.06;101580.25;5045179;28;20294;-73
2021/09/07 07:37:32;;;;;;;13.10;9.07;;;;;;;17.30;89.66;101589.41;5044592;28;20215;-73
2021/09/07 07:40:27;;;;;;;13.87;8.93;;;;;;;17.31;89.04;101589.34;5045343;28;20238;-73
2021/09/07 07:43:15;;;;;;;11.87;8.17;;;;;;;17.38;87.99;101597.88;5050920;28;20199;-73
2021/09/07 07:46:01;;;;;;;13.80;8.97;;;;;;;17.35;86.23;101603.28;5041671;28;20196;-73
2021/09/07 07:48:49;;;;;;;12.23;8.70;;;;;;;17.35;87.06;101598.84;5040260;28;20215;-73
2021/09/07 07:51:27;;;;;;;13.53;9.20;;;;;;;17.39;86.96;101599.59;5044186;28;20757;-73
2021/09/07 07:54:00;;;;;;;14.57;9.13;;;;;;;17.41;88.51;101601.25;5042100;28;20310;-72
2021/09/07 07:56:36;;;;;;;13.57;9.20;;;;;;;17.34;87.54;101607.69;5045229;28;20233;-72
2021/09/07 07:59:15;;;;;;;15.03;9.50;;;;;;;17.31;87.19;101602.53;5043578;28;20835;-73
2021/09/07 08:01:47;;;;;;;13.43;8.77;;;;;;;17.36;88.91;101604.97;5045687;28;20582;-73
2021/09/07 08:07:24;;;;;;;14.50;8.83;;;;;;;17.24;86.91;101611.59;5044189;28;20227;-72
2021/09/07 08:09:57;;;;;;;14.10;9.20;;;;;;;17.26;86.94;101614.19;5046400;28;20219;-72
2021/09/07 08:12:48;;;;;;;14.93;9.03;;;;;;;17.36;86.97;101608.50;5044585;28;20682;-73
2021/09/07 08:15:22;;;;;;;15.47;8.73;;;;;;;17.52;87.16;101605.22;5036133;28;20290;-72
2021/09/07 08:18:00;;;;;;;15.20;8.53;;;;;;;17.60;86.18;101604.00;5036013;28;20289;-72
2021/09/07 08:20:42;;;;;;;15.43;9.87;;;;;;;17.68;86.86;101608.97;5044383;28;20286;-72
2021/09/07 08:23:27;;;;;;;14.53;8.87;;;;;;;17.77;87.57;101613.88;5044915;28;20203;-73
2021/09/07 08:26:09;;;;;;;12.70;8.63;;;;;;;17.89;86.07;101624.91;5038189;28;20301;-72
2021/09/07 08:28:37;;;;;;;13.87;8.57;;;;;;;17.93;82.20;101629.13;5044697;28;20264;-73
2021/09/07 08:31:24;;;;;;;11.47;8.20;;;;;;;18.02;83.79;101619.97;5045177;28;20419;-72
2021/09/07 08:34:03;;;;;;;12.50;8.90;;;;;;;18.08;82.47;101627.63;5043312;28;20289;-73
2021/09/07 08:36:57;;;;;;;11.47;8.03;;;;;;;18.11;83.06;101627.50;5045874;28;20230;-72
2021/09/07 08:39:37;;;;;;;14.57;8.53;;;;;;;18.25;80.72;101627.75;5045440;28;20203;-73
2021/09/07 08:42:15;;;;;;;11.37;7.83;;;;;;;18.29;78.75;101639.06;5044750;28;20211;-73
2021/09/07 08:44:59;;;;;;;11.80;7.17;;;;;;;18.39;79.54;101635.09;5047057;28;20683;-73
2021/09/07 08:48:08;;;;;;;11.20;7.77;;;;;;;18.54;78.46;101636.25;5042688;28;20754;-72
2021/09/07 08:51:00;;;;;;;12.60;7.93;;;;;;;18.64;76.56;101647.25;5016456;28;20210;-73
2021/09/07 08:53:37;;;;;;;13.70;8.37;;;;;;;18.68;77.80;101646.16;5045844;28;20200;-72
2021/09/07 08:56:26;;;;;;;11.60;7.57;;;;;;;18.71;76.57;101640.75;5043286;28;20513;-72
2021/09/07 08:59:06;;;;;;;12.80;7.43;;;;;;;18.84;76.96;101641.97;5044264;28;20203;-72
2021/09/07 09:01:51;;;;;;;11.20;7.03;;;;;;;18.97;77.47;101644.06;5043137;28;20195;-73
2021/09/07 09:04:35;;;;;;;12.87;8.23;;;;;;;18.97;76.14;101646.72;5044237;28;20207;-73
2021/09/07 09:07:07;;;;;;;12.40;7.80;;;;;;;19.04;75.78;101651.63;5044202;28;20309;-72
2021/09/07 09:09:49;;;;;;;11.43;7.30;;;;;;;19.10;77.70;101642.56;5040203;28;20236;-73
2021/09/07 09:12:33;;;;;;;11.37;7.33;;;;;;;19.25;78.25;101651.59;5043880;28;20253;-72
2021/09/07 09:15:14;;;;;;;15.17;7.83;;;;;;;19.27;74.90;101650.56;5041879;28;20701;-72
2021/09/07 09:18:12;;;;;;;11.73;7.67;;;;;;;19.38;75.34;101639.50;5042989;28;20246;-72
2021/09/07 09:21:20;;;;;;;11.93;7.40;;;;;;;19.46;74.22;101650.56;5042672;28;20341;-72
2021/09/07 09:24:13;;;;;;;11.20;7.17;;;;;;;19.59;73.88;101652.63;5041317;28;20580;-73
2021/09/07 09:27:03;;;;;;;9.30;6.70;;;;;;;19.73;73.45;101651.97;5041882;28;20581;-73
2021/09/07 09:29:45;;;;;;;9.70;6.20;;;;;;;19.84;75.37;101650.56;5043062;28;20299;-72
2021/09/07 09:32:24;;;;;;;10.83;7.50;;;;;;;19.95;72.75;101651.84;5042423;28;20568;-73
2021/09/07 09:35:09;;;;;;;13.17;7.80;;;;;;;20.22;70.91;101654.88;5042105;28;20675;-73
2021/09/07 09:37:58;;;;;;;10.40;6.80;;;;;;;20.35;71.35;101655.09;5042690;28;20226;-72
2021/09/07 09:40:39;;;;;;;8.33;6.40;;;;;;;20.39;69.49;101654.03;5042479;28;20203;-73
2021/09/07 09:43:26;;;;;;;9.93;6.80;;;;;;;20.53;72.21;101648.88;5046644;28;20215;-73
2021/09/07 09:46:22;;;;;;;10.97;7.20;;;;;;;20.42;71.25;101645.91;5044511;28;20278;-73
2021/09/07 09:49:09;;;;;;;11.00;7.07;;;;;;;20.29;70.77;101647.50;5042051;28;20222;-73
2021/09/07 09:51:57;;;;;;;9.47;6.77;;;;;;;20.31;72.69;101632.38;5046597;28;20207;-73
2021/09/07 09:54:35;;;;;;;10.10;5.90;;;;;;;20.43;71.17;101643.19;5047098;28;20199;-73
2021/09/07 09:57:06;;;;;;;7.93;5.67;;;;;;;20.46;70.34;101644.00;5046636;28;20711;-73
2021/09/07 09:59:48;;;;;;;9.33;6.37;;;;;;;20.62;67.75;101655.53;5043374;28;20721;-73
2021/09/07 10:02:36;;;;;;;8.93;6.30;;;;;;;20.74;67.52;101644.28;5043065;28;20254;-73
2021/09/07 10:05:11;;;;;;;9.60;5.73;;;;;;;20.83;68.48;101639.44;5045453;28;20226;-73
2021/09/07 10:07:54;;;;;;;7.80;5.77;;;;;;;20.62;67.63;101647.56;5045540;28;20225;-73
2021/09/07 10:10:39;;;;;;;7.90;5.57;;;;;;;20.44;68.46;101641.41;5045060;28;20730;-73
2021/09/07 10:13:55;;;;;;;7.43;5.37;;;;;;;20.35;67.57;101634.78;5048022;28;20286;-73
2021/09/07 10:16:38;;;;;;;6.90;5.40;;;;;;;20.42;66.91;101640.59;5043992;28;20316;-73
2021/09/07 10:19:25;;;;;;;9.07;5.57;;;;;;;20.68;66.25;101638.44;5046131;28;20235;-73
2021/09/07 10:25:04;;;;;;;8.40;5.67;;;;;;;21.14;65.80;101620.94;5043535;28;20679;-73
2021/09/07 10:28:10;;;;;;;7.10;5.30;;;;;;;21.19;65.09;101623.31;5043662;28;20785;-73
2021/09/07 10:31:18;;;;;;;6.97;5.77;;;;;;;20.82;62.34;101629.75;5045543;28;20223;-73
2021/09/07 10:34:24;;;;;;;7.97;5.60;;;;;;;20.78;65.03;101632.56;5037858;28;20290;-73
2021/09/07 10:37:35;;;;;;;8.10;5.37;;;;;;;20.80;66.35;101613.94;5043968;28;20230;-73
2021/09/07 10:40:37;;;;;;;6.77;5.00;;;;;;;21.03;65.87;101618.00;5043568;28;20202;-73
2021/09/07 10:43:36;;;;;;;7.97;5.90;;;;;;;21.29;65.65;101619.22;5033269;28;20238;-73
2021/09/07 10:46:17;;;;;;;8.47;5.90;;;;;;;21.57;63.72;101620.34;5040539;28;20261;-73
2021/09/07 10:49:22;;;;;;;9.07;5.80;;;;;;;21.60;65.34;101616.66;5043219;28;20310;-73
2021/09/07 10:52:23;;;;;;;10.70;6.50;;;;;;;21.46;65.43;101618.31;5044376;28;20211;-73
2021/09/07 10:54:59;;;;;;;7.37;5.37;;;;;;;21.58;64.05;101619.41;5043101;28;20210;-72
2021/09/07 10:58:13;;;;;;;7.13;5.13;;;;;;;21.75;61.33;101623.75;5045565;28;20288;-72
2021/09/07 11:00:56;;;;;;;7.47;5.70;;;;;;;21.67;63.27;101626.84;5043508;28;20230;-73
2021/09/07 11:03:39;;;;;;;6.15;4.82;;;;;;;21.28;63.09;101632.56;5038293;28;20202;-73
2021/09/07 11:06:49;;;;;;;8.70;5.60;;;;;;;20.97;64.26;101626.28;5044347;28;20266;-73
2021/09/07 11:09:52;;;;;;;8.60;4.90;;;;;;;21.14;64.57;101623.59;5042099;28;20273;-73
2021/09/07 11:12:40;;;;;;;7.68;4.95;;;;;;;21.51;62.10;101621.56;5037882;28;20597;-73
2021/09/07 11:15:10;;;;;;;7.27;5.03;;;;;;;21.68;59.58;101625.91;5043761;28;20207;-73
2021/09/07 11:18:02;;;;;;;7.72;4.85;;;;;;;21.75;58.17;101627.25;5044023;28;20233;-73
2021/09/07 11:20:45;;;;;;;7.57;4.93;;;;;;;21.75;57.74;101629.06;5039862;28;20196;-73
2021/09/07 11:23:30;;;;;;;7.20;4.80;;;;;;;21.90;57.87;101619.38;5040689;28;20195;-73
2021/09/07 11:26:20;;;;;;;6.45;4.70;;;;;;;22.06;59.98;101612.22;5044552;28;20207;-73
2021/09/07 11:28:52;;;;;;;6.43;5.00;;;;;;;22.38;61.33;101609.47;5045837;28;20216;-73
2021/09/07 11:31:37;;;;;;;6.10;4.78;;;;;;;22.43;59.61;101607.38;5039373;28;20714;-73
2021/09/07 11:34:21;;;;;;;6.32;4.43;;;;;;;22.46;57.54;101611.63;5045194;28;20209;-73
2021/09/07 11:37:19;;;;;;;5.63;4.47;;;;;;;22.62;57.70;101616.88;5043720;28;20385;-73
2021/09/07 11:40:16;;;;;;;6.20;4.60;;;;;;;22.78;56.62;101616.78;5039391;28;20286;-73
2021/09/07 11:43:02;;;;;;;6.05;4.40;;;;;;;22.85;56.85;101610.16;5042664;28;20206;-73
2021/09/07 11:45:41;;;;;;;5.45;4.13;;;;;;;22.89;57.53;101603.69;5042806;28;20196;-73
2021/09/07 11:48:14;;;;;;;6.95;5.38;;;;;;;23.00;57.78;101597.69;5033356;28;20226;-73
2021/09/07 11:51:05;;;;;;;8.90;5.13;;;;;;;23.09;56.51;101599.78;5040996;28;20222;-72
2021/09/07 11:53:57;;;;;;;4.97;4.40;;;;;;;23.18;58.15;101604.53;5042014;28;21140;-73
2021/09/07 11:56:43;;;;;;;6.30;4.90;;;;;;;23.10;55.30;101606.81;5042675;28;20227;-73
2021/09/07 11:59:28;;;;;;;6.13;4.47;;;;;;;22.96;56.85;101601.50;5022657;28;20192;-73
2021/09/07 12:02:26;;;;;;;6.47;4.70;;;;;;;23.09;57.68;101605.09;5039036;28;20209;-73